sensor_id;sensor_type;location;lat;lon;timestamp;temperature;humidity
41310;DHT22;27057;51.438;-0.010;2023-02-28T00:01:31;4.20;99.90
41310;DHT22;27057;51.438;-0.010;2023-02-28T00:03:59;4.10;99.90
41310;DHT22;27057;51.438;-0.010;2023-02-28T00:06:27;4.20;99.90
41310;DHT22;27057;51.438;-0.010;2023-02-28T00:08:54;4.20;99.90
41310;DHT22;27057;51.438;-0.010;2023-02-28T00:16:21;4.20;99.90
41310;DHT22;27057;51.438;-0.010;2023-02-28T00:18:50;4.00;99.90
41310;DHT22;27057;51.438;-0.010;2023-02-28T00:31:12;4.00;99.90
41310;DHT22;27057;51.438;-0.010;2023-02-28T00:36:09;4.70;99.90
41310;DHT22;27057;51.438;-0.010;2023-02-28T00:38:38;4.30;99.90
41310;DHT22;27057;51.438;-0.010;2023-02-28T00:41:07;4.10;99.90
41310;DHT22;27057;51.438;-0.010;2023-02-28T00:43:35;4.00;99.90
41310;DHT22;27057;51.438;-0.010;2023-02-28T00:46:04;3.60;99.90
41310;DHT22;27057;51.438;-0.010;2023-02-28T00:53:28;4.00;99.90
41310;DHT22;27057;51.438;-0.010;2023-02-28T01:00:54;3.90;99.90
41310;DHT22;27057;51.438;-0.010;2023-02-28T01:03:22;4.50;99.90
41310;DHT22;27057;51.438;-0.010;2023-02-28T01:08:17;3.70;99.90
41310;DHT22;27057;51.438;-0.010;2023-02-28T01:13:12;3.80;99.90
41310;DHT22;27057;51.438;-0.010;2023-02-28T01:15:43;3.70;99.90
41310;DHT22;27057;51.438;-0.010;2023-02-28T01:23:09;4.00;99.90
41310;DHT22;27057;51.438;-0.010;2023-02-28T01:33:01;3.50;99.90
41310;DHT22;27057;51.438;-0.010;2023-02-28T01:43:10;3.70;99.90
41310;DHT22;27057;51.438;-0.010;2023-02-28T01:50:42;3.50;99.90
41310;DHT22;27057;51.438;-0.010;2023-02-28T01:53:14;3.40;99.90
41310;DHT22;27057;51.438;-0.010;2023-02-28T01:55:47;3.40;99.90
41310;DHT22;27057;51.438;-0.010;2023-02-28T01:58:15;3.30;99.90
41310;DHT22;27057;51.438;-0.010;2023-02-28T02:03:13;3.10;99.90
41310;DHT22;27057;51.438;-0.010;2023-02-28T02:08:21;3.20;99.90
41310;DHT22;27057;51.438;-0.010;2023-02-28T02:10:52;3.20;99.90
41310;DHT22;27057;51.438;-0.010;2023-02-28T02:28:18;3.40;99.90
41310;DHT22;27057;51.438;-0.010;2023-02-28T02:33:36;3.30;99.90
41310;DHT22;27057;51.438;-0.010;2023-02-28T02:36:27;3.40;99.90
41310;DHT22;27057;51.438;-0.010;2023-02-28T02:39:22;3.30;99.90
41310;DHT22;27057;51.438;-0.010;2023-02-28T02:41:53;3.30;99.90
41310;DHT22;27057;51.438;-0.010;2023-02-28T02:44:24;3.30;99.90
41310;DHT22;27057;51.438;-0.010;2023-02-28T02:47:11;3.10;99.90
41310;DHT22;27057;51.438;-0.010;2023-02-28T02:49:45;3.30;99.90
41310;DHT22;27057;51.438;-0.010;2023-02-28T02:52:17;3.30;99.90
41310;DHT22;27057;51.438;-0.010;2023-02-28T02:54:47;3.00;99.90
41310;DHT22;27057;51.438;-0.010;2023-02-28T02:57:22;2.90;99.90
41310;DHT22;27057;51.438;-0.010;2023-02-28T02:59:51;3.20;99.90
41310;DHT22;27057;51.438;-0.010;2023-02-28T03:02:20;2.90;99.90
41310;DHT22;27057;51.438;-0.010;2023-02-28T03:04:52;3.10;99.90
41310;DHT22;27057;51.438;-0.010;2023-02-28T03:07:21;3.20;99.90
41310;DHT22;27057;51.438;-0.010;2023-02-28T03:09:53;3.80;99.90
41310;DHT22;27057;51.438;-0.010;2023-02-28T03:12:33;3.10;99.90
41310;DHT22;27057;51.438;-0.010;2023-02-28T03:15:25;3.00;99.90
41310;DHT22;27057;51.438;-0.010;2023-02-28T03:20:49;2.90;99.90
41310;DHT22;27057;51.438;-0.010;2023-02-28T03:23:38;3.00;99.90
41310;DHT22;27057;51.438;-0.010;2023-02-28T03:26:19;3.50;99.90
41310;DHT22;27057;51.438;-0.010;2023-02-28T03:29:04;4.80;99.90
41310;DHT22;27057;51.438;-0.010;2023-02-28T03:32:05;3.20;99.90
41310;DHT22;27057;51.438;-0.010;2023-02-28T03:34:38;3.50;99.90
41310;DHT22;27057;51.438;-0.010;2023-02-28T03:37:13;3.10;99.90
41310;DHT22;27057;51.438;-0.010;2023-02-28T03:40:01;3.10;99.90
41310;DHT22;27057;51.438;-0.010;2023-02-28T03:42:32;3.00;99.90
41310;DHT22;27057;51.438;-0.010;2023-02-28T03:45:05;3.30;99.90
41310;DHT22;27057;51.438;-0.010;2023-02-28T03:47:41;3.00;99.90
41310;DHT22;27057;51.438;-0.010;2023-02-28T03:50:20;3.90;99.90
41310;DHT22;27057;51.438;-0.010;2023-02-28T03:53:03;3.00;99.90
41310;DHT22;27057;51.438;-0.010;2023-02-28T03:55:39;3.10;99.90
41310;DHT22;27057;51.438;-0.010;2023-02-28T03:58:27;3.60;99.90
41310;DHT22;27057;51.438;-0.010;2023-02-28T04:01:04;4.60;99.90
41310;DHT22;27057;51.438;-0.010;2023-02-28T04:03:36;3.40;99.90
41310;DHT22;27057;51.438;-0.010;2023-02-28T04:06:06;3.00;99.90
41310;DHT22;27057;51.438;-0.010;2023-02-28T04:08:35;4.40;99.90
41310;DHT22;27057;51.438;-0.010;2023-02-28T04:13:42;3.00;99.90
41310;DHT22;27057;51.438;-0.010;2023-02-28T04:16:13;3.00;99.90
41310;DHT22;27057;51.438;-0.010;2023-02-28T04:18:58;2.80;99.90
41310;DHT22;27057;51.438;-0.010;2023-02-28T04:21:32;3.10;99.90
41310;DHT22;27057;51.438;-0.010;2023-02-28T04:24:00;3.40;99.90
41310;DHT22;27057;51.438;-0.010;2023-02-28T04:26:33;2.90;99.90
41310;DHT22;27057;51.438;-0.010;2023-02-28T04:29:03;3.20;99.90
41310;DHT22;27057;51.438;-0.010;2023-02-28T04:31:31;3.10;99.90
41310;DHT22;27057;51.438;-0.010;2023-02-28T04:33:59;2.80;99.90
41310;DHT22;27057;51.438;-0.010;2023-02-28T04:36:27;3.20;99.90
41310;DHT22;27057;51.438;-0.010;2023-02-28T04:38:54;3.00;99.90
41310;DHT22;27057;51.438;-0.010;2023-02-28T04:43:53;2.90;99.90
41310;DHT22;27057;51.438;-0.010;2023-02-28T04:46:20;3.00;99.90
41310;DHT22;27057;51.438;-0.010;2023-02-28T04:48:48;3.00;99.90
41310;DHT22;27057;51.438;-0.010;2023-02-28T04:51:17;2.90;99.90
41310;DHT22;27057;51.438;-0.010;2023-02-28T04:53:45;2.50;99.90
41310;DHT22;27057;51.438;-0.010;2023-02-28T04:56:15;1.50;99.90
41310;DHT22;27057;51.438;-0.010;2023-02-28T04:58:43;2.80;99.90
41310;DHT22;27057;51.438;-0.010;2023-02-28T05:01:22;2.70;99.90
41310;DHT22;27057;51.438;-0.010;2023-02-28T05:03:51;2.80;99.90
41310;DHT22;27057;51.438;-0.010;2023-02-28T05:06:19;2.70;99.90
41310;DHT22;27057;51.438;-0.010;2023-02-28T05:08:47;3.70;99.90
41310;DHT22;27057;51.438;-0.010;2023-02-28T05:11:21;2.80;99.90
41310;DHT22;27057;51.438;-0.010;2023-02-28T05:13:49;3.10;99.90
41310;DHT22;27057;51.438;-0.010;2023-02-28T05:16:18;2.70;99.90
41310;DHT22;27057;51.438;-0.010;2023-02-28T05:18:46;2.60;99.90
41310;DHT22;27057;51.438;-0.010;2023-02-28T05:21:30;3.20;99.90
41310;DHT22;27057;51.438;-0.010;2023-02-28T05:24:00;2.60;99.90
41310;DHT22;27057;51.438;-0.010;2023-02-28T05:26:28;2.50;99.90
41310;DHT22;27057;51.438;-0.010;2023-02-28T05:28:55;2.80;99.90
41310;DHT22;27057;51.438;-0.010;2023-02-28T05:31:23;2.60;99.90
41310;DHT22;27057;51.438;-0.010;2023-02-28T05:33:51;2.80;99.90
41310;DHT22;27057;51.438;-0.010;2023-02-28T05:36:20;2.80;99.90
41310;DHT22;27057;51.438;-0.010;2023-02-28T05:38:48;2.60;99.90
41310;DHT22;27057;51.438;-0.010;2023-02-28T05:41:17;2.60;99.90
41310;DHT22;27057;51.438;-0.010;2023-02-28T05:46:14;2.70;99.90
41310;DHT22;27057;51.438;-0.010;2023-02-28T05:48:45;2.70;99.90
41310;DHT22;27057;51.438;-0.010;2023-02-28T05:53:41;2.30;99.90
41310;DHT22;27057;51.438;-0.010;2023-02-28T05:56:08;3.10;99.90
41310;DHT22;27057;51.438;-0.010;2023-02-28T05:58:36;2.70;99.90
41310;DHT22;27057;51.438;-0.010;2023-02-28T06:01:32;2.90;99.90
41310;DHT22;27057;51.438;-0.010;2023-02-28T06:04:00;2.80;99.90
41310;DHT22;27057;51.438;-0.010;2023-02-28T06:11:25;3.70;99.90
41310;DHT22;27057;51.438;-0.010;2023-02-28T06:13:57;3.00;99.90
41310;DHT22;27057;51.438;-0.010;2023-02-28T06:16:27;3.30;99.90
41310;DHT22;27057;51.438;-0.010;2023-02-28T06:18:57;3.30;99.90
41310;DHT22;27057;51.438;-0.010;2023-02-28T06:21:25;3.80;99.90
41310;DHT22;27057;51.438;-0.010;2023-02-28T06:23:56;3.30;99.90
41310;DHT22;27057;51.438;-0.010;2023-02-28T06:28:52;3.40;99.90
41310;DHT22;27057;51.438;-0.010;2023-02-28T06:33:47;3.30;99.90
41310;DHT22;27057;51.438;-0.010;2023-02-28T06:36:16;3.50;99.90
41310;DHT22;27057;51.438;-0.010;2023-02-28T06:41:11;3.60;99.90
41310;DHT22;27057;51.438;-0.010;2023-02-28T06:43:41;3.40;99.90
41310;DHT22;27057;51.438;-0.010;2023-02-28T06:46:11;3.40;99.90
41310;DHT22;27057;51.438;-0.010;2023-02-28T06:48:42;3.60;99.90
41310;DHT22;27057;51.438;-0.010;2023-02-28T06:51:19;3.80;99.90
41310;DHT22;27057;51.438;-0.010;2023-02-28T06:53:51;3.50;99.90
41310;DHT22;27057;51.438;-0.010;2023-02-28T06:56:19;3.40;99.90
41310;DHT22;27057;51.438;-0.010;2023-02-28T06:58:49;3.60;99.90
41310;DHT22;27057;51.438;-0.010;2023-02-28T07:01:17;3.70;99.90
41310;DHT22;27057;51.438;-0.010;2023-02-28T07:03:45;6.10;99.90
41310;DHT22;27057;51.438;-0.010;2023-02-28T07:06:12;3.50;99.90
41310;DHT22;27057;51.438;-0.010;2023-02-28T07:11:08;3.40;99.90
41310;DHT22;27057;51.438;-0.010;2023-02-28T07:13:35;3.60;99.90
41310;DHT22;27057;51.438;-0.010;2023-02-28T07:16:05;3.50;99.90
41310;DHT22;27057;51.438;-0.010;2023-02-28T07:18:33;3.90;99.90
41310;DHT22;27057;51.438;-0.010;2023-02-28T07:21:05;3.60;99.90
41310;DHT22;27057;51.438;-0.010;2023-02-28T07:26:01;4.00;99.90
41310;DHT22;27057;51.438;-0.010;2023-02-28T07:28:28;5.00;99.90
41310;DHT22;27057;51.438;-0.010;2023-02-28T07:30:55;3.80;99.90
41310;DHT22;27057;51.438;-0.010;2023-02-28T07:33:23;4.20;99.90
41310;DHT22;27057;51.438;-0.010;2023-02-28T07:35:51;4.30;99.90
41310;DHT22;27057;51.438;-0.010;2023-02-28T07:38:18;4.00;99.90
41310;DHT22;27057;51.438;-0.010;2023-02-28T07:40:47;4.00;99.90
41310;DHT22;27057;51.438;-0.010;2023-02-28T07:43:14;4.00;99.90
41310;DHT22;27057;51.438;-0.010;2023-02-28T07:45:41;4.00;99.90
41310;DHT22;27057;51.438;-0.010;2023-02-28T07:48:08;4.00;99.90
41310;DHT22;27057;51.438;-0.010;2023-02-28T07:50:37;4.20;99.90
41310;DHT22;27057;51.438;-0.010;2023-02-28T07:55:32;4.20;99.90
41310;DHT22;27057;51.438;-0.010;2023-02-28T07:57:59;4.40;99.90
41310;DHT22;27057;51.438;-0.010;2023-02-28T08:00:27;4.50;99.90
41310;DHT22;27057;51.438;-0.010;2023-02-28T08:05:24;4.50;99.90
41310;DHT22;27057;51.438;-0.010;2023-02-28T08:10:20;4.70;99.90
41310;DHT22;27057;51.438;-0.010;2023-02-28T08:15:15;5.00;99.90
41310;DHT22;27057;51.438;-0.010;2023-02-28T08:17:42;5.10;99.90
41310;DHT22;27057;51.438;-0.010;2023-02-28T08:20:10;5.30;99.90
41310;DHT22;27057;51.438;-0.010;2023-02-28T08:22:38;5.10;99.90
41310;DHT22;27057;51.438;-0.010;2023-02-28T08:25:05;6.70;99.90
41310;DHT22;27057;51.438;-0.010;2023-02-28T08:27:34;5.10;99.90
41310;DHT22;27057;51.438;-0.010;2023-02-28T08:30:02;5.40;99.90
41310;DHT22;27057;51.438;-0.010;2023-02-28T08:32:32;5.30;99.90
41310;DHT22;27057;51.438;-0.010;2023-02-28T08:35:00;5.50;99.90
41310;DHT22;27057;51.438;-0.010;2023-02-28T08:37:27;5.60;99.90
41310;DHT22;27057;51.438;-0.010;2023-02-28T08:39:54;5.60;99.90
41310;DHT22;27057;51.438;-0.010;2023-02-28T08:42:23;5.70;99.90
41310;DHT22;27057;51.438;-0.010;2023-02-28T08:44:50;5.60;99.90
41310;DHT22;27057;51.438;-0.010;2023-02-28T08:47:18;5.90;99.90
41310;DHT22;27057;51.438;-0.010;2023-02-28T08:52:13;5.80;99.90
41310;DHT22;27057;51.438;-0.010;2023-02-28T08:54:41;6.00;99.90
41310;DHT22;27057;51.438;-0.010;2023-02-28T08:57:08;6.40;99.90
41310;DHT22;27057;51.438;-0.010;2023-02-28T08:59:36;6.30;99.90
41310;DHT22;27057;51.438;-0.010;2023-02-28T09:02:03;7.60;99.90
41310;DHT22;27057;51.438;-0.010;2023-02-28T09:06:58;6.30;99.90
41310;DHT22;27057;51.438;-0.010;2023-02-28T09:11:56;6.60;99.90
41310;DHT22;27057;51.438;-0.010;2023-02-28T09:14:24;6.60;99.90
41310;DHT22;27057;51.438;-0.010;2023-02-28T09:19:19;6.50;99.90
41310;DHT22;27057;51.438;-0.010;2023-02-28T09:24:14;6.70;99.90
41310;DHT22;27057;51.438;-0.010;2023-02-28T09:26:42;6.20;99.90
41310;DHT22;27057;51.438;-0.010;2023-02-28T09:29:30;7.90;99.90
41310;DHT22;27057;51.438;-0.010;2023-02-28T09:34:28;6.90;99.90
41310;DHT22;27057;51.438;-0.010;2023-02-28T09:36:59;6.90;99.90
41310;DHT22;27057;51.438;-0.010;2023-02-28T09:39:26;6.90;99.90
41310;DHT22;27057;51.438;-0.010;2023-02-28T09:41:55;6.90;99.90
41310;DHT22;27057;51.438;-0.010;2023-02-28T09:44:36;7.10;99.90
41310;DHT22;27057;51.438;-0.010;2023-02-28T09:47:29;7.20;99.90
41310;DHT22;27057;51.438;-0.010;2023-02-28T09:50:03;7.30;99.90
41310;DHT22;27057;51.438;-0.010;2023-02-28T10:00:36;7.30;99.90
41310;DHT22;27057;51.438;-0.010;2023-02-28T10:03:31;7.30;99.90
41310;DHT22;27057;51.438;-0.010;2023-02-28T10:06:20;8.00;99.90
41310;DHT22;27057;51.438;-0.010;2023-02-28T10:08:57;7.40;99.90
41310;DHT22;27057;51.438;-0.010;2023-02-28T10:11:29;7.60;99.90
41310;DHT22;27057;51.438;-0.010;2023-02-28T10:14:06;8.60;99.90
41310;DHT22;27057;51.438;-0.010;2023-02-28T10:24:51;7.40;99.90
41310;DHT22;27057;51.438;-0.010;2023-02-28T10:27:21;7.90;99.90
41310;DHT22;27057;51.438;-0.010;2023-02-28T10:29:57;7.80;99.90
41310;DHT22;27057;51.438;-0.010;2023-02-28T10:32:31;7.60;99.90
41310;DHT22;27057;51.438;-0.010;2023-02-28T10:35:17;7.50;99.90
41310;DHT22;27057;51.438;-0.010;2023-02-28T10:37:47;7.90;99.90
41310;DHT22;27057;51.438;-0.010;2023-02-28T10:43:04;7.70;99.90
41310;DHT22;27057;51.438;-0.010;2023-02-28T10:45:34;7.80;99.90
41310;DHT22;27057;51.438;-0.010;2023-02-28T10:48:05;8.00;99.90
41310;DHT22;27057;51.438;-0.010;2023-02-28T10:53:16;7.40;99.90
41310;DHT22;27057;51.438;-0.010;2023-02-28T10:55:44;7.40;99.90
41310;DHT22;27057;51.438;-0.010;2023-02-28T10:58:21;7.40;99.90
41310;DHT22;27057;51.438;-0.010;2023-02-28T11:00:51;7.40;99.90
41310;DHT22;27057;51.438;-0.010;2023-02-28T11:05:52;7.50;99.90
41310;DHT22;27057;51.438;-0.010;2023-02-28T11:08:19;7.40;99.90
41310;DHT22;27057;51.438;-0.010;2023-02-28T11:10:54;7.50;99.90
41310;DHT22;27057;51.438;-0.010;2023-02-28T11:13:28;7.40;99.90
41310;DHT22;27057;51.438;-0.010;2023-02-28T11:15:59;7.50;99.90
41310;DHT22;27057;51.438;-0.010;2023-02-28T11:21:00;7.50;99.90
41310;DHT22;27057;51.438;-0.010;2023-02-28T11:23:31;7.50;99.90
41310;DHT22;27057;51.438;-0.010;2023-02-28T11:26:03;7.30;99.90
41310;DHT22;27057;51.438;-0.010;2023-02-28T11:28:35;7.40;99.90
41310;DHT22;27057;51.438;-0.010;2023-02-28T11:33:53;8.00;99.90
41310;DHT22;27057;51.438;-0.010;2023-02-28T11:36:25;7.80;99.90
41310;DHT22;27057;51.438;-0.010;2023-02-28T11:38:55;7.80;99.90
41310;DHT22;27057;51.438;-0.010;2023-02-28T11:42:08;7.70;99.90
41310;DHT22;27057;51.438;-0.010;2023-02-28T11:47:32;7.20;99.90
41310;DHT22;27057;51.438;-0.010;2023-02-28T11:50:16;7.30;99.90
41310;DHT22;27057;51.438;-0.010;2023-02-28T11:53:06;7.50;99.90
41310;DHT22;27057;51.438;-0.010;2023-02-28T11:55:42;7.30;99.90
41310;DHT22;27057;51.438;-0.010;2023-02-28T11:58:21;7.50;99.90
41310;DHT22;27057;51.438;-0.010;2023-02-28T12:01:12;7.30;99.90
41310;DHT22;27057;51.438;-0.010;2023-02-28T12:06:30;7.90;99.90
41310;DHT22;27057;51.438;-0.010;2023-02-28T12:11:58;7.40;99.90
41310;DHT22;27057;51.438;-0.010;2023-02-28T12:14:53;7.60;99.90
41310;DHT22;27057;51.438;-0.010;2023-02-28T12:20:26;7.50;99.90
41310;DHT22;27057;51.438;-0.010;2023-02-28T12:23:22;7.60;99.90
41310;DHT22;27057;51.438;-0.010;2023-02-28T12:28:52;7.70;99.90
41310;DHT22;27057;51.438;-0.010;2023-02-28T12:31:24;8.00;99.90
41310;DHT22;27057;51.438;-0.010;2023-02-28T12:33:57;8.30;99.90
41310;DHT22;27057;51.438;-0.010;2023-02-28T12:36:27;8.00;99.90
41310;DHT22;27057;51.438;-0.010;2023-02-28T12:39:02;8.30;99.90
41310;DHT22;27057;51.438;-0.010;2023-02-28T12:41:45;8.40;99.90
41310;DHT22;27057;51.438;-0.010;2023-02-28T12:44:19;8.00;99.90
41310;DHT22;27057;51.438;-0.010;2023-02-28T12:46:50;7.90;99.90
41310;DHT22;27057;51.438;-0.010;2023-02-28T12:49:27;8.00;99.90
41310;DHT22;27057;51.438;-0.010;2023-02-28T12:52:00;9.10;99.90
41310;DHT22;27057;51.438;-0.010;2023-02-28T12:54:40;7.80;99.90
41310;DHT22;27057;51.438;-0.010;2023-02-28T13:00:13;7.90;99.90
41310;DHT22;27057;51.438;-0.010;2023-02-28T13:11:24;8.00;99.90
41310;DHT22;27057;51.438;-0.010;2023-02-28T13:14:13;7.70;99.90
41310;DHT22;27057;51.438;-0.010;2023-02-28T13:16:57;7.50;99.90
41310;DHT22;27057;51.438;-0.010;2023-02-28T13:19:28;7.90;99.90
41310;DHT22;27057;51.438;-0.010;2023-02-28T13:21:57;7.70;99.90
41310;DHT22;27057;51.438;-0.010;2023-02-28T13:24:42;9.90;99.90
41310;DHT22;27057;51.438;-0.010;2023-02-28T13:29:43;7.80;99.90
41310;DHT22;27057;51.438;-0.010;2023-02-28T13:34:47;7.90;99.90
41310;DHT22;27057;51.438;-0.010;2023-02-28T13:37:43;7.70;99.90
41310;DHT22;27057;51.438;-0.010;2023-02-28T13:42:48;7.80;99.90
41310;DHT22;27057;51.438;-0.010;2023-02-28T13:45:23;7.80;99.90
41310;DHT22;27057;51.438;-0.010;2023-02-28T13:47:56;7.70;99.90
41310;DHT22;27057;51.438;-0.010;2023-02-28T13:50:32;8.70;99.90
41310;DHT22;27057;51.438;-0.010;2023-02-28T13:58:48;7.80;99.90
41310;DHT22;27057;51.438;-0.010;2023-02-28T14:01:33;7.90;99.90
41310;DHT22;27057;51.438;-0.010;2023-02-28T14:04:20;7.70;99.90
41310;DHT22;27057;51.438;-0.010;2023-02-28T14:07:05;9.10;99.90
41310;DHT22;27057;51.438;-0.010;2023-02-28T14:09:36;8.00;99.90
41310;DHT22;27057;51.438;-0.010;2023-02-28T14:18:32;7.70;99.90
41310;DHT22;27057;51.438;-0.010;2023-02-28T14:23:52;8.00;99.90
41310;DHT22;27057;51.438;-0.010;2023-02-28T14:32:02;7.80;99.90
41310;DHT22;27057;51.438;-0.010;2023-02-28T14:37:13;7.90;99.90
41310;DHT22;27057;51.438;-0.010;2023-02-28T14:39:44;7.90;99.90
41310;DHT22;27057;51.438;-0.010;2023-02-28T14:42:29;7.70;99.90
41310;DHT22;27057;51.438;-0.010;2023-02-28T14:44:57;7.80;99.90
41310;DHT22;27057;51.438;-0.010;2023-02-28T14:47:30;7.90;99.90
41310;DHT22;27057;51.438;-0.010;2023-02-28T14:49:59;7.90;99.90
41310;DHT22;27057;51.438;-0.010;2023-02-28T14:52:30;8.10;99.90
41310;DHT22;27057;51.438;-0.010;2023-02-28T14:55:13;8.00;99.90
41310;DHT22;27057;51.438;-0.010;2023-02-28T14:57:58;8.10;99.90
41310;DHT22;27057;51.438;-0.010;2023-02-28T15:00:29;8.00;99.90
41310;DHT22;27057;51.438;-0.010;2023-02-28T15:02:58;8.10;99.90
41310;DHT22;27057;51.438;-0.010;2023-02-28T15:05:29;8.00;99.90
41310;DHT22;27057;51.438;-0.010;2023-02-28T15:08:03;8.30;99.90
41310;DHT22;27057;51.438;-0.010;2023-02-28T15:10:31;8.10;99.90
41310;DHT22;27057;51.438;-0.010;2023-02-28T15:13:05;7.90;99.90
41310;DHT22;27057;51.438;-0.010;2023-02-28T15:15:43;7.80;99.90
41310;DHT22;27057;51.438;-0.010;2023-02-28T15:20:57;7.90;99.90
41310;DHT22;27057;51.438;-0.010;2023-02-28T15:23:28;7.90;99.90
41310;DHT22;27057;51.438;-0.010;2023-02-28T15:25:56;8.00;99.90
41310;DHT22;27057;51.438;-0.010;2023-02-28T15:31:03;7.80;99.90
41310;DHT22;27057;51.438;-0.010;2023-02-28T15:33:58;7.80;99.90
41310;DHT22;27057;51.438;-0.010;2023-02-28T15:36:30;8.00;99.90
41310;DHT22;27057;51.438;-0.010;2023-02-28T15:39:00;7.80;99.90
41310;DHT22;27057;51.438;-0.010;2023-02-28T15:44:16;7.70;99.90
41310;DHT22;27057;51.438;-0.010;2023-02-28T15:47:20;9.50;99.90
41310;DHT22;27057;51.438;-0.010;2023-02-28T15:49:49;8.00;99.90
41310;DHT22;27057;51.438;-0.010;2023-02-28T15:55:20;7.50;99.90
41310;DHT22;27057;51.438;-0.010;2023-02-28T15:57:53;7.50;99.90
41310;DHT22;27057;51.438;-0.010;2023-02-28T16:00:23;7.40;99.90
41310;DHT22;27057;51.438;-0.010;2023-02-28T16:02:52;7.50;99.90
41310;DHT22;27057;51.438;-0.010;2023-02-28T16:05:23;7.50;99.90
41310;DHT22;27057;51.438;-0.010;2023-02-28T16:08:08;7.70;99.90
41310;DHT22;27057;51.438;-0.010;2023-02-28T16:13:05;7.50;99.90
41310;DHT22;27057;51.438;-0.010;2023-02-28T16:15:38;7.80;99.90
41310;DHT22;27057;51.438;-0.010;2023-02-28T16:18:13;7.60;99.90
41310;DHT22;27057;51.438;-0.010;2023-02-28T16:20:40;7.50;99.90
41310;DHT22;27057;51.438;-0.010;2023-02-28T16:23:08;8.80;99.90
41310;DHT22;27057;51.438;-0.010;2023-02-28T16:25:43;7.60;99.90
41310;DHT22;27057;51.438;-0.010;2023-02-28T16:28:19;7.80;99.90
41310;DHT22;27057;51.438;-0.010;2023-02-28T16:30:48;7.70;99.90
41310;DHT22;27057;51.438;-0.010;2023-02-28T16:33:15;7.50;99.90
41310;DHT22;27057;51.438;-0.010;2023-02-28T16:35:42;7.50;99.90
41310;DHT22;27057;51.438;-0.010;2023-02-28T16:38:10;7.60;99.90
41310;DHT22;27057;51.438;-0.010;2023-02-28T16:40:37;9.30;99.90
41310;DHT22;27057;51.438;-0.010;2023-02-28T16:43:07;7.50;99.90
41310;DHT22;27057;51.438;-0.010;2023-02-28T16:45:36;7.50;99.90
41310;DHT22;27057;51.438;-0.010;2023-02-28T16:48:04;8.20;99.90
41310;DHT22;27057;51.438;-0.010;2023-02-28T16:50:31;7.50;99.90
41310;DHT22;27057;51.438;-0.010;2023-02-28T16:53:00;7.70;99.90
41310;DHT22;27057;51.438;-0.010;2023-02-28T16:55:27;7.60;99.90
41310;DHT22;27057;51.438;-0.010;2023-02-28T16:58:01;8.70;99.90
41310;DHT22;27057;51.438;-0.010;2023-02-28T17:00:31;9.20;99.90
41310;DHT22;27057;51.438;-0.010;2023-02-28T17:02:59;7.30;99.90
41310;DHT22;27057;51.438;-0.010;2023-02-28T17:05:28;7.70;99.90
41310;DHT22;27057;51.438;-0.010;2023-02-28T17:07:57;7.70;99.90
41310;DHT22;27057;51.438;-0.010;2023-02-28T17:10:26;8.80;99.90
41310;DHT22;27057;51.438;-0.010;2023-02-28T17:12:53;8.10;99.90
41310;DHT22;27057;51.438;-0.010;2023-02-28T17:15:29;7.60;99.90
41310;DHT22;27057;51.438;-0.010;2023-02-28T17:17:58;7.60;99.90
41310;DHT22;27057;51.438;-0.010;2023-02-28T17:22:54;7.60;99.90
41310;DHT22;27057;51.438;-0.010;2023-02-28T17:25:22;7.70;99.90
41310;DHT22;27057;51.438;-0.010;2023-02-28T17:27:50;7.60;99.90
41310;DHT22;27057;51.438;-0.010;2023-02-28T17:30:23;7.60;99.90
41310;DHT22;27057;51.438;-0.010;2023-02-28T17:35:18;7.50;99.90
41310;DHT22;27057;51.438;-0.010;2023-02-28T17:37:46;7.40;99.90
41310;DHT22;27057;51.438;-0.010;2023-02-28T17:40:19;7.50;99.90
41310;DHT22;27057;51.438;-0.010;2023-02-28T17:42:47;7.30;99.90
41310;DHT22;27057;51.438;-0.010;2023-02-28T17:45:15;7.30;99.90
41310;DHT22;27057;51.438;-0.010;2023-02-28T17:47:46;7.30;99.90
41310;DHT22;27057;51.438;-0.010;2023-02-28T17:50:18;7.10;99.90
41310;DHT22;27057;51.438;-0.010;2023-02-28T17:52:46;7.10;99.90
41310;DHT22;27057;51.438;-0.010;2023-02-28T17:55:13;7.10;99.90
41310;DHT22;27057;51.438;-0.010;2023-02-28T17:57:41;7.20;99.90
41310;DHT22;27057;51.438;-0.010;2023-02-28T18:00:12;7.40;99.90
41310;DHT22;27057;51.438;-0.010;2023-02-28T18:02:43;7.20;99.90
41310;DHT22;27057;51.438;-0.010;2023-02-28T18:05:11;7.40;99.90
41310;DHT22;27057;51.438;-0.010;2023-02-28T18:07:39;7.70;99.90
41310;DHT22;27057;51.438;-0.010;2023-02-28T18:10:13;7.30;99.90
41310;DHT22;27057;51.438;-0.010;2023-02-28T18:12:42;7.30;99.90
41310;DHT22;27057;51.438;-0.010;2023-02-28T18:15:10;7.30;99.90
41310;DHT22;27057;51.438;-0.010;2023-02-28T18:17:37;7.40;99.90
41310;DHT22;27057;51.438;-0.010;2023-02-28T18:20:05;7.60;99.90
41310;DHT22;27057;51.438;-0.010;2023-02-28T18:22:32;7.40;99.90
41310;DHT22;27057;51.438;-0.010;2023-02-28T18:25:07;7.50;99.90
41310;DHT22;27057;51.438;-0.010;2023-02-28T18:27:38;7.30;99.90
41310;DHT22;27057;51.438;-0.010;2023-02-28T18:30:06;8.30;99.90
41310;DHT22;27057;51.438;-0.010;2023-02-28T18:32:33;7.40;99.90
41310;DHT22;27057;51.438;-0.010;2023-02-28T18:35:01;7.40;99.90
41310;DHT22;27057;51.438;-0.010;2023-02-28T18:37:28;7.40;99.90
41310;DHT22;27057;51.438;-0.010;2023-02-28T18:39:55;7.40;99.90
41310;DHT22;27057;51.438;-0.010;2023-02-28T18:42:23;7.40;99.90
41310;DHT22;27057;51.438;-0.010;2023-02-28T18:44:50;7.40;99.90
41310;DHT22;27057;51.438;-0.010;2023-02-28T18:49:46;7.50;99.90
41310;DHT22;27057;51.438;-0.010;2023-02-28T18:52:14;7.50;99.90
41310;DHT22;27057;51.438;-0.010;2023-02-28T18:54:41;7.30;99.90
41310;DHT22;27057;51.438;-0.010;2023-02-28T18:57:09;7.50;99.90
41310;DHT22;27057;51.438;-0.010;2023-02-28T18:59:37;7.40;99.90
41310;DHT22;27057;51.438;-0.010;2023-02-28T19:02:07;7.40;99.90
41310;DHT22;27057;51.438;-0.010;2023-02-28T19:04:39;7.50;99.90
41310;DHT22;27057;51.438;-0.010;2023-02-28T19:07:07;7.60;99.90
41310;DHT22;27057;51.438;-0.010;2023-02-28T19:09:35;8.10;99.90
41310;DHT22;27057;51.438;-0.010;2023-02-28T19:12:03;7.60;99.90
41310;DHT22;27057;51.438;-0.010;2023-02-28T19:14:30;7.30;99.90
41310;DHT22;27057;51.438;-0.010;2023-02-28T19:17:00;7.40;99.90
41310;DHT22;27057;51.438;-0.010;2023-02-28T19:19:29;7.40;99.90
41310;DHT22;27057;51.438;-0.010;2023-02-28T19:21:58;7.60;99.90
41310;DHT22;27057;51.438;-0.010;2023-02-28T19:24:25;7.40;99.90
41310;DHT22;27057;51.438;-0.010;2023-02-28T19:26:53;7.60;99.90
41310;DHT22;27057;51.438;-0.010;2023-02-28T19:29:20;7.40;99.90
41310;DHT22;27057;51.438;-0.010;2023-02-28T19:31:48;7.60;99.90
41310;DHT22;27057;51.438;-0.010;2023-02-28T19:34:15;9.30;99.90
41310;DHT22;27057;51.438;-0.010;2023-02-28T19:36:43;7.60;99.90
41310;DHT22;27057;51.438;-0.010;2023-02-28T19:39:10;7.40;99.90
41310;DHT22;27057;51.438;-0.010;2023-02-28T19:41:38;7.70;99.90
41310;DHT22;27057;51.438;-0.010;2023-02-28T19:44:05;7.80;99.90
41310;DHT22;27057;51.438;-0.010;2023-02-28T19:49:01;7.40;99.90
41310;DHT22;27057;51.438;-0.010;2023-02-28T19:51:28;7.60;99.90
41310;DHT22;27057;51.438;-0.010;2023-02-28T19:53:57;7.40;99.90
41310;DHT22;27057;51.438;-0.010;2023-02-28T19:58:52;7.40;99.90
41310;DHT22;27057;51.438;-0.010;2023-02-28T20:01:20;7.50;99.90
41310;DHT22;27057;51.438;-0.010;2023-02-28T20:03:49;7.30;99.90
41310;DHT22;27057;51.438;-0.010;2023-02-28T20:06:17;7.20;99.90